sensor_id;sensor_type;location;lat;lon;timestamp;temperature;humidity
64869;DHT22;51349;52.424;10.840;2022-11-15T00:04:51;5.70;99.90
64869;DHT22;51349;52.424;10.840;2022-11-15T00:09:51;6.00;99.90
64869;DHT22;51349;52.424;10.840;2022-11-15T00:14:52;5.80;99.90
64869;DHT22;51349;52.424;10.840;2022-11-15T00:19:53;5.50;99.90
64869;DHT22;51349;52.424;10.840;2022-11-15T00:24:53;5.20;99.90
64869;DHT22;51349;52.424;10.840;2022-11-15T00:29:54;5.00;99.90
64869;DHT22;51349;52.424;10.840;2022-11-15T00:34:54;4.80;99.90
64869;DHT22;51349;52.424;10.840;2022-11-15T00:39:58;4.70;99.90
64869;DHT22;51349;52.424;10.840;2022-11-15T00:44:58;4.60;99.90
64869;DHT22;51349;52.424;10.840;2022-11-15T00:49:59;4.60;99.90
64869;DHT22;51349;52.424;10.840;2022-11-15T00:55:00;4.50;99.90
64869;DHT22;51349;52.424;10.840;2022-11-15T01:00:00;4.20;99.90
64869;DHT22;51349;52.424;10.840;2022-11-15T01:05:01;4.30;99.90
64869;DHT22;51349;52.424;10.840;2022-11-15T01:10:02;4.20;99.90
64869;DHT22;51349;52.424;10.840;2022-11-15T01:15:03;4.20;99.90
64869;DHT22;51349;52.424;10.840;2022-11-15T01:20:06;4.10;99.90
64869;DHT22;51349;52.424;10.840;2022-11-15T01:25:07;4.20;99.90
64869;DHT22;51349;52.424;10.840;2022-11-15T01:30:08;4.00;99.90
64869;DHT22;51349;52.424;10.840;2022-11-15T01:35:08;4.00;99.90
64869;DHT22;51349;52.424;10.840;2022-11-15T01:40:09;4.00;99.90
64869;DHT22;51349;52.424;10.840;2022-11-15T01:45:19;3.90;99.90
64869;DHT22;51349;52.424;10.840;2022-11-15T01:50:25;3.90;99.90
64869;DHT22;51349;52.424;10.840;2022-11-15T01:55:28;3.90;99.90
64869;DHT22;51349;52.424;10.840;2022-11-15T02:00:29;3.80;99.90
64869;DHT22;51349;52.424;10.840;2022-11-15T02:05:31;3.70;99.90
64869;DHT22;51349;52.424;10.840;2022-11-15T02:10:32;3.50;99.90
64869;DHT22;51349;52.424;10.840;2022-11-15T02:15:40;3.50;99.90
64869;DHT22;51349;52.424;10.840;2022-11-15T02:20:58;3.40;99.90
64869;DHT22;51349;52.424;10.840;2022-11-15T02:31:58;3.30;99.90
64869;DHT22;51349;52.424;10.840;2022-11-15T02:42:16;3.20;99.90
64869;DHT22;51349;52.424;10.840;2022-11-15T02:47:44;3.20;99.90
64869;DHT22;51349;52.424;10.840;2022-11-15T02:52:47;3.10;99.90
64869;DHT22;51349;52.424;10.840;2022-11-15T02:57:52;3.10;99.90
64869;DHT22;51349;52.424;10.840;2022-11-15T03:08:32;3.00;99.90
64869;DHT22;51349;52.424;10.840;2022-11-15T03:13:44;3.00;99.90
64869;DHT22;51349;52.424;10.840;2022-11-15T03:18:52;2.90;99.90
64869;DHT22;51349;52.424;10.840;2022-11-15T03:23:56;2.90;99.90
64869;DHT22;51349;52.424;10.840;2022-11-15T03:29:18;2.80;99.90
64869;DHT22;51349;52.424;10.840;2022-11-15T03:34:28;2.80;99.90
64869;DHT22;51349;52.424;10.840;2022-11-15T03:39:29;2.70;99.90
64869;DHT22;51349;52.424;10.840;2022-11-15T03:44:51;2.70;99.90
64869;DHT22;51349;52.424;10.840;2022-11-15T03:50:04;2.60;99.90
64869;DHT22;51349;52.424;10.840;2022-11-15T03:55:10;2.70;99.90
64869;DHT22;51349;52.424;10.840;2022-11-15T04:00:12;2.60;99.90
64869;DHT22;51349;52.424;10.840;2022-11-15T04:05:12;2.60;99.90
64869;DHT22;51349;52.424;10.840;2022-11-15T04:10:13;2.60;99.90
64869;DHT22;51349;52.424;10.840;2022-11-15T04:15:20;2.60;99.90
64869;DHT22;51349;52.424;10.840;2022-11-15T04:20:26;2.60;99.90
64869;DHT22;51349;52.424;10.840;2022-11-15T04:25:52;2.50;99.90
64869;DHT22;51349;52.424;10.840;2022-11-15T04:30:53;2.50;99.90
64869;DHT22;51349;52.424;10.840;2022-11-15T04:35:53;2.40;99.90
64869;DHT22;51349;52.424;10.840;2022-11-15T04:41:12;2.40;99.90
64869;DHT22;51349;52.424;10.840;2022-11-15T04:46:13;2.50;99.90
64869;DHT22;51349;52.424;10.840;2022-11-15T04:51:14;2.50;99.90
64869;DHT22;51349;52.424;10.840;2022-11-15T04:56:14;2.50;99.90
64869;DHT22;51349;52.424;10.840;2022-11-15T05:01:15;2.40;99.90
64869;DHT22;51349;52.424;10.840;2022-11-15T05:06:16;2.40;99.90
64869;DHT22;51349;52.424;10.840;2022-11-15T05:11:17;2.30;99.90
64869;DHT22;51349;52.424;10.840;2022-11-15T05:16:17;2.40;99.90
64869;DHT22;51349;52.424;10.840;2022-11-15T05:21:18;2.50;99.90
64869;DHT22;51349;52.424;10.840;2022-11-15T05:26:19;2.50;99.90
64869;DHT22;51349;52.424;10.840;2022-11-15T05:31:19;2.60;99.90
64869;DHT22;51349;52.424;10.840;2022-11-15T05:36:44;2.70;99.90
64869;DHT22;51349;52.424;10.840;2022-11-15T05:41:59;2.70;99.90
64869;DHT22;51349;52.424;10.840;2022-11-15T05:47:01;2.80;99.90
64869;DHT22;51349;52.424;10.840;2022-11-15T05:52:05;2.80;99.90
64869;DHT22;51349;52.424;10.840;2022-11-15T05:57:08;2.70;99.90
64869;DHT22;51349;52.424;10.840;2022-11-15T06:02:09;2.90;99.90
64869;DHT22;51349;52.424;10.840;2022-11-15T06:07:09;2.80;99.90
64869;DHT22;51349;52.424;10.840;2022-11-15T06:12:10;2.60;99.90
64869;DHT22;51349;52.424;10.840;2022-11-15T06:17:10;2.60;99.90
64869;DHT22;51349;52.424;10.840;2022-11-15T06:22:11;2.70;99.90
64869;DHT22;51349;52.424;10.840;2022-11-15T06:27:11;2.60;99.90
64869;DHT22;51349;52.424;10.840;2022-11-15T06:32:12;2.50;99.90
64869;DHT22;51349;52.424;10.840;2022-11-15T06:37:13;2.70;99.90
64869;DHT22;51349;52.424;10.840;2022-11-15T06:42:13;2.70;99.90
64869;DHT22;51349;52.424;10.840;2022-11-15T06:47:14;2.60;99.90
64869;DHT22;51349;52.424;10.840;2022-11-15T06:52:15;2.60;99.90
64869;DHT22;51349;52.424;10.840;2022-11-15T06:57:15;2.90;99.90
64869;DHT22;51349;52.424;10.840;2022-11-15T07:02:16;2.80;99.90
64869;DHT22;51349;52.424;10.840;2022-11-15T07:07:17;2.90;99.90
64869;DHT22;51349;52.424;10.840;2022-11-15T07:12:17;3.30;99.90
64869;DHT22;51349;52.424;10.840;2022-11-15T07:17:18;3.30;99.90
64869;DHT22;51349;52.424;10.840;2022-11-15T07:22:18;3.40;99.90
64869;DHT22;51349;52.424;10.840;2022-11-15T07:27:19;3.50;99.90
64869;DHT22;51349;52.424;10.840;2022-11-15T07:32:19;3.60;99.90
64869;DHT22;51349;52.424;10.840;2022-11-15T07:37:20;3.80;99.90
64869;DHT22;51349;52.424;10.840;2022-11-15T07:42:21;4.20;99.90
64869;DHT22;51349;52.424;10.840;2022-11-15T07:47:40;4.90;99.90
64869;DHT22;51349;52.424;10.840;2022-11-15T07:52:41;5.30;99.90
64869;DHT22;51349;52.424;10.840;2022-11-15T07:57:41;5.40;99.90
64869;DHT22;51349;52.424;10.840;2022-11-15T08:02:42;5.30;99.90
64869;DHT22;51349;52.424;10.840;2022-11-15T08:07:43;5.40;99.90
64869;DHT22;51349;52.424;10.840;2022-11-15T08:12:43;5.70;99.90
64869;DHT22;51349;52.424;10.840;2022-11-15T08:17:44;6.90;99.90
64869;DHT22;51349;52.424;10.840;2022-11-15T08:22:44;7.60;99.90
64869;DHT22;51349;52.424;10.840;2022-11-15T08:27:45;7.60;99.90
64869;DHT22;51349;52.424;10.840;2022-11-15T08:32:46;7.80;99.90
64869;DHT22;51349;52.424;10.840;2022-11-15T08:37:47;8.10;99.90
64869;DHT22;51349;52.424;10.840;2022-11-15T08:42:48;8.30;99.90
64869;DHT22;51349;52.424;10.840;2022-11-15T08:47:48;8.20;99.90
64869;DHT22;51349;52.424;10.840;2022-11-15T08:52:49;8.50;99.90
64869;DHT22;51349;52.424;10.840;2022-11-15T08:57:49;8.70;99.90
64869;DHT22;51349;52.424;10.840;2022-11-15T09:02:50;8.70;99.90
64869;DHT22;51349;52.424;10.840;2022-11-15T09:07:54;8.80;99.90
64869;DHT22;51349;52.424;10.840;2022-11-15T09:12:57;9.10;99.90
64869;DHT22;51349;52.424;10.840;2022-11-15T09:17:58;9.40;99.90
64869;DHT22;51349;52.424;10.840;2022-11-15T09:23:01;9.90;99.90
64869;DHT22;51349;52.424;10.840;2022-11-15T09:28:06;10.20;99.90
64869;DHT22;51349;52.424;10.840;2022-11-15T09:33:12;10.40;99.90
64869;DHT22;51349;52.424;10.840;2022-11-15T09:38:12;10.40;99.90
64869;DHT22;51349;52.424;10.840;2022-11-15T09:48:51;10.80;99.90
64869;DHT22;51349;52.424;10.840;2022-11-15T09:54:19;10.80;99.90
64869;DHT22;51349;52.424;10.840;2022-11-15T10:04:50;11.40;99.90
64869;DHT22;51349;52.424;10.840;2022-11-15T10:09:53;11.80;99.90
64869;DHT22;51349;52.424;10.840;2022-11-15T10:15:15;12.00;99.90
64869;DHT22;51349;52.424;10.840;2022-11-15T10:30:32;13.50;99.90
64869;DHT22;51349;52.424;10.840;2022-11-15T10:35:33;12.90;99.90
64869;DHT22;51349;52.424;10.840;2022-11-15T10:40:35;13.50;99.90
64869;DHT22;51349;52.424;10.840;2022-11-15T10:45:37;13.90;99.90
64869;DHT22;51349;52.424;10.840;2022-11-15T10:55:40;16.00;99.90
64869;DHT22;51349;52.424;10.840;2022-11-15T11:00:42;16.70;99.90
64869;DHT22;51349;52.424;10.840;2022-11-15T11:05:43;18.40;99.90
64869;DHT22;51349;52.424;10.840;2022-11-15T11:10:57;18.70;99.90
64869;DHT22;51349;52.424;10.840;2022-11-15T11:21:10;20.90;99.90
64869;DHT22;51349;52.424;10.840;2022-11-15T11:36:56;22.00;99.90
64869;DHT22;51349;52.424;10.840;2022-11-15T11:47:24;22.20;99.90
64869;DHT22;51349;52.424;10.840;2022-11-15T11:52:30;22.40;96.80
64869;DHT22;51349;52.424;10.840;2022-11-15T12:08:45;21.70;97.60
64869;DHT22;51349;52.424;10.840;2022-11-15T12:13:50;19.70;99.70
64869;DHT22;51349;52.424;10.840;2022-11-15T12:18:55;18.30;99.90
64869;DHT22;51349;52.424;10.840;2022-11-15T12:24:02;17.50;99.90
64869;DHT22;51349;52.424;10.840;2022-11-15T12:29:25;18.40;99.90
64869;DHT22;51349;52.424;10.840;2022-11-15T12:40:16;17.60;99.90
64869;DHT22;51349;52.424;10.840;2022-11-15T12:45:29;16.60;99.90
64869;DHT22;51349;52.424;10.840;2022-11-15T13:11:48;15.70;99.90
64869;DHT22;51349;52.424;10.840;2022-11-15T13:16:58;15.30;99.90
64869;DHT22;51349;52.424;10.840;2022-11-15T13:21:59;15.10;99.90
64869;DHT22;51349;52.424;10.840;2022-11-15T13:27:19;14.90;99.90
64869;DHT22;51349;52.424;10.840;2022-11-15T13:32:21;14.60;99.90
64869;DHT22;51349;52.424;10.840;2022-11-15T13:42:22;14.20;99.90
64869;DHT22;51349;52.424;10.840;2022-11-15T13:47:27;13.90;99.90
64869;DHT22;51349;52.424;10.840;2022-11-15T13:52:34;13.90;99.90
64869;DHT22;51349;52.424;10.840;2022-11-15T13:57:47;13.80;99.90
64869;DHT22;51349;52.424;10.840;2022-11-15T14:02:48;13.60;99.90
64869;DHT22;51349;52.424;10.840;2022-11-15T14:12:59;13.30;99.90
64869;DHT22;51349;52.424;10.840;2022-11-15T14:18:00;13.10;99.90
64869;DHT22;51349;52.424;10.840;2022-11-15T14:23:06;13.10;99.90
64869;DHT22;51349;52.424;10.840;2022-11-15T14:33:20;12.70;99.90
64869;DHT22;51349;52.424;10.840;2022-11-15T14:38:21;12.60;99.90
64869;DHT22;51349;52.424;10.840;2022-11-15T14:43:22;12.40;99.90
64869;DHT22;51349;52.424;10.840;2022-11-15T14:48:23;12.40;99.90
64869;DHT22;51349;52.424;10.840;2022-11-15T14:53:23;12.30;99.90
64869;DHT22;51349;52.424;10.840;2022-11-15T14:58:24;12.20;99.90
64869;DHT22;51349;52.424;10.840;2022-11-15T15:03:25;12.10;99.90
64869;DHT22;51349;52.424;10.840;2022-11-15T15:08:25;12.10;99.90
64869;DHT22;51349;52.424;10.840;2022-11-15T15:13:26;12.00;99.90
64869;DHT22;51349;52.424;10.840;2022-11-15T15:18:29;11.90;99.90
64869;DHT22;51349;52.424;10.840;2022-11-15T15:23:29;11.80;99.90
64869;DHT22;51349;52.424;10.840;2022-11-15T15:28:31;11.70;99.90
64869;DHT22;51349;52.424;10.840;2022-11-15T15:33:32;11.60;99.90
64869;DHT22;51349;52.424;10.840;2022-11-15T15:38:33;11.60;99.90
64869;DHT22;51349;52.424;10.840;2022-11-15T15:43:33;11.60;99.90
64869;DHT22;51349;52.424;10.840;2022-11-15T15:48:34;11.60;99.90
64869;DHT22;51349;52.424;10.840;2022-11-15T15:53:37;11.50;99.90
64869;DHT22;51349;52.424;10.840;2022-11-15T15:58:38;11.50;99.90
64869;DHT22;51349;52.424;10.840;2022-11-15T16:03:38;11.40;99.90
64869;DHT22;51349;52.424;10.840;2022-11-15T16:08:39;11.40;99.90
64869;DHT22;51349;52.424;10.840;2022-11-15T16:13:39;11.30;99.90
64869;DHT22;51349;52.424;10.840;2022-11-15T16:18:40;11.30;99.90
64869;DHT22;51349;52.424;10.840;2022-11-15T16:23:41;11.30;99.90
64869;DHT22;51349;52.424;10.840;2022-11-15T16:28:41;11.30;99.90
64869;DHT22;51349;52.424;10.840;2022-11-15T16:33:42;11.20;99.90
64869;DHT22;51349;52.424;10.840;2022-11-15T16:38:42;11.20;99.90
64869;DHT22;51349;52.424;10.840;2022-11-15T16:43:47;11.20;99.90
64869;DHT22;51349;52.424;10.840;2022-11-15T16:48:49;11.20;99.90
64869;DHT22;51349;52.424;10.840;2022-11-15T16:53:50;11.10;99.90
64869;DHT22;51349;52.424;10.840;2022-11-15T16:58:50;11.10;99.90
64869;DHT22;51349;52.424;10.840;2022-11-15T17:03:52;11.00;99.90
64869;DHT22;51349;52.424;10.840;2022-11-15T17:08:53;11.00;99.90
64869;DHT22;51349;52.424;10.840;2022-11-15T17:13:57;10.90;99.90
64869;DHT22;51349;52.424;10.840;2022-11-15T17:19:02;10.90;99.90
64869;DHT22;51349;52.424;10.840;2022-11-15T17:24:03;10.80;99.90
64869;DHT22;51349;52.424;10.840;2022-11-15T17:29:04;10.80;99.90
64869;DHT22;51349;52.424;10.840;2022-11-15T17:34:07;10.70;99.90
64869;DHT22;51349;52.424;10.840;2022-11-15T17:39:08;10.80;99.90
64869;DHT22;51349;52.424;10.840;2022-11-15T17:44:08;10.80;99.90
64869;DHT22;51349;52.424;10.840;2022-11-15T17:49:09;10.80;99.90
64869;DHT22;51349;52.424;10.840;2022-11-15T17:54:12;10.90;99.90
64869;DHT22;51349;52.424;10.840;2022-11-15T17:59:13;10.90;99.90
64869;DHT22;51349;52.424;10.840;2022-11-15T18:04:14;10.80;99.90
64869;DHT22;51349;52.424;10.840;2022-11-15T18:09:14;10.80;99.90
64869;DHT22;51349;52.424;10.840;2022-11-15T18:14:15;10.70;99.90
64869;DHT22;51349;52.424;10.840;2022-11-15T18:19:16;10.70;99.90
64869;DHT22;51349;52.424;10.840;2022-11-15T18:24:16;10.60;99.90
64869;DHT22;51349;52.424;10.840;2022-11-15T18:29:17;10.50;99.90
64869;DHT22;51349;52.424;10.840;2022-11-15T18:34:19;10.40;99.90
64869;DHT22;51349;52.424;10.840;2022-11-15T18:39:20;10.40;99.90
64869;DHT22;51349;52.424;10.840;2022-11-15T18:44:23;10.40;99.90
64869;DHT22;51349;52.424;10.840;2022-11-15T18:49:23;10.50;99.90
64869;DHT22;51349;52.424;10.840;2022-11-15T18:54:26;10.50;99.90
64869;DHT22;51349;52.424;10.840;2022-11-15T18:59:28;10.40;99.90
64869;DHT22;51349;52.424;10.840;2022-11-15T19:04:28;10.30;99.90
64869;DHT22;51349;52.424;10.840;2022-11-15T19:09:29;10.50;99.90
64869;DHT22;51349;52.424;10.840;2022-11-15T19:14:32;10.60;99.90
64869;DHT22;51349;52.424;10.840;2022-11-15T19:19:32;10.60;99.90
64869;DHT22;51349;52.424;10.840;2022-11-15T19:24:33;10.50;99.90
64869;DHT22;51349;52.424;10.840;2022-11-15T19:29:33;10.40;99.90
64869;DHT22;51349;52.424;10.840;2022-11-15T19:34:34;10.50;99.90
64869;DHT22;51349;52.424;10.840;2022-11-15T19:39:35;10.40;99.90
64869;DHT22;51349;52.424;10.840;2022-11-15T19:44:36;10.30;99.90
64869;DHT22;51349;52.424;10.840;2022-11-15T19:49:36;10.30;99.90
64869;DHT22;51349;52.424;10.840;2022-11-15T19:54:37;10.30;99.90
64869;DHT22;51349;52.424;10.840;2022-11-15T19:59:38;10.20;99.90
64869;DHT22;51349;52.424;10.840;2022-11-15T20:04:38;10.20;99.90
64869;DHT22;51349;52.424;10.840;2022-11-15T20:09:39;10.10;99.90
64869;DHT22;51349;52.424;10.840;2022-11-15T20:14:40;10.10;99.90
64869;DHT22;51349;52.424;10.840;2022-11-15T20:19:40;10.00;99.90
64869;DHT22;51349;52.424;10.840;2022-11-15T20:24:41;10.00;99.90
64869;DHT22;51349;52.424;10.840;2022-11-15T20:29:41;10.00;99.90
64869;DHT22;51349;52.424;10.840;2022-11-15T20:34:43;9.90;99.90
64869;DHT22;51349;52.424;10.840;2022-11-15T20:39:43;9.90;99.90
64869;DHT22;51349;52.424;10.840;2022-11-15T20:44:44;9.80;99.90
64869;DHT22;51349;52.424;10.840;2022-11-15T20:49:44;9.70;99.90
64869;DHT22;51349;52.424;10.840;2022-11-15T20:54:45;9.70;99.90
64869;DHT22;51349;52.424;10.840;2022-11-15T20:59:46;9.70;99.90
64869;DHT22;51349;52.424;10.840;2022-11-15T21:04:46;9.60;99.90
64869;DHT22;51349;52.424;10.840;2022-11-15T21:09:47;9.60;99.90
64869;DHT22;51349;52.424;10.840;2022-11-15T21:15:06;9.50;99.90
64869;DHT22;51349;52.424;10.840;2022-11-15T21:20:07;9.50;99.90
64869;DHT22;51349;52.424;10.840;2022-11-15T21:25:14;9.40;99.90
64869;DHT22;51349;52.424;10.840;2022-11-15T21:30:16;9.40;99.90
64869;DHT22;51349;52.424;10.840;2022-11-15T21:35:16;9.40;99.90
64869;DHT22;51349;52.424;10.840;2022-11-15T21:40:17;9.40;99.90
64869;DHT22;51349;52.424;10.840;2022-11-15T21:45:18;9.30;99.90
64869;DHT22;51349;52.424;10.840;2022-11-15T21:50:18;9.30;99.90
64869;DHT22;51349;52.424;10.840;2022-11-15T21:55:19;9.30;99.90
64869;DHT22;51349;52.424;10.840;2022-11-15T22:00:19;9.30;99.90
64869;DHT22;51349;52.424;10.840;2022-11-15T22:05:38;9.20;99.90
64869;DHT22;51349;52.424;10.840;2022-11-15T22:10:46;9.20;99.90
64869;DHT22;51349;52.424;10.840;2022-11-15T22:15:47;9.20;99.90
64869;DHT22;51349;52.424;10.840;2022-11-15T22:20:58;9.20;99.90
64869;DHT22;51349;52.424;10.840;2022-11-15T22:25:59;9.10;99.90
64869;DHT22;51349;52.424;10.840;2022-11-15T22:31:00;9.00;99.90
64869;DHT22;51349;52.424;10.840;2022-11-15T22:36:01;9.10;99.90
64869;DHT22;51349;52.424;10.840;2022-11-15T22:41:02;9.00;99.90
64869;DHT22;51349;52.424;10.840;2022-11-15T22:46:03;9.00;99.90
64869;DHT22;51349;52.424;10.840;2022-11-15T22:51:05;9.10;99.90
64869;DHT22;51349;52.424;10.840;2022-11-15T22:56:06;9.30;99.90
64869;DHT22;51349;52.424;10.840;2022-11-15T23:01:13;9.20;99.90
64869;DHT22;51349;52.424;10.840;2022-11-15T23:06:17;9.30;99.90
64869;DHT22;51349;52.424;10.840;2022-11-15T23:11:18;9.20;99.90
64869;DHT22;51349;52.424;10.840;2022-11-15T23:16:37;9.20;99.90
64869;DHT22;51349;52.424;10.840;2022-11-15T23:21:44;9.20;99.90
64869;DHT22;51349;52.424;10.840;2022-11-15T23:27:05;9.20;99.90
64869;DHT22;51349;52.424;10.840;2022-11-15T23:32:07;9.10;99.90
64869;DHT22;51349;52.424;10.840;2022-11-15T23:37:26;9.10;99.90
64869;DHT22;51349;52.424;10.840;2022-11-15T23:42:27;9.10;99.90
64869;DHT22;51349;52.424;10.840;2022-11-15T23:47:28;9.00;99.90
64869;DHT22;51349;52.424;10.840;2022-11-15T23:52:31;9.00;99.90
64869;DHT22;51349;52.424;10.840;2022-11-15T23:57:32;9.00;99.90
